D'andre Forward — WDH7100 — position and weather

sailwx.info

Track history (hours):
 
Tides and Currents Weather Stations Pressure Air Temp Water Temp Dewpoint Dewpoint Depression Visibility Wind Speed Wind Dir Waves Ship Positions

D'andre Forward

Owner: Florida Marine, LLC, Mandeville, LA. More information available from US FCC via Universal Licensing System and Coast Guard Vessel Documentation Center.

Last reported at 2018-Jan-12 14:58 UTC. Time now 2018-Jan-21 16:19 UTC.
Position N 30°06' W 093°19'.
Warning: this ship's position is 9 days out of date.

Length 24 m; draft 2.6 m.

Type: Other ship. MMSI: 367644790.

Date/timePositionNaut miles runAvg speedWind from/ knotsBaromVisibWave heightAir tempDewpointWater temp
2018-Jan-12 14:58N 30°06' W 093°19'0 0.0
2018-Jan-12 14:30N 30°06' W 093°19'0 0.0
2018-Jan-12 14:00N 30°06' W 093°19'0 0.0
2018-Jan-12 13:30N 30°06' W 093°19'0 0.0
2018-Jan-12 13:00N 30°06' W 093°19'3 5.1
2018-Jan-12 12:30N 30°04' W 093°21'3 5.9
2018-Jan-12 12:00N 30°04' W 093°24'3 6.1
2018-Jan-12 11:30N 30°04' W 093°27'3 6.1
2018-Jan-12 11:00N 30°04' W 093°31'3 6.0
2018-Jan-12 10:29N 30°04' W 093°35'3 5.6
2018-Jan-12 10:01N 30°04' W 093°38'3 5.2
2018-Jan-12 09:30N 30°04' W 093°41'  
2018-Jan-09 23:58N 30°04' W 093°39'2 4.9
2018-Jan-09 23:30N 30°04' W 093°36'2 4.6
2018-Jan-09 22:59N 30°04' W 093°34'2 4.6
2018-Jan-09 22:30N 30°04' W 093°31'2 4.7
2018-Jan-09 22:00N 30°04' W 093°28'2 4.7
2018-Jan-09 21:30N 30°04' W 093°25'2 4.8
2018-Jan-09 21:00N 30°04' W 093°23'2 3.8
2018-Jan-09 20:31N 30°04' W 093°21'2 4.2
2018-Jan-09 20:01N 30°06' W 093°19'2 3.1
2018-Jan-09 19:30N 30°05' W 093°18'1 1.9
2018-Jan-09 19:00N 30°05' W 093°17'1 1.6
2018-Jan-09 18:31N 30°04' W 093°16'0 0.7
2018-Jan-09 18:00N 30°04' W 093°16'0 0.0
2018-Jan-09 17:31N 30°04' W 093°16'0 0.1
2018-Jan-09 17:01N 30°04' W 093°16'0 0.3
2018-Jan-09 16:30N 30°04' W 093°16'1 1.6
2018-Jan-09 16:01N 30°03' W 093°16'2 4.3
2018-Jan-09 15:30N 30°01' W 093°14'2 4.2
2018-Jan-09 15:00N 29°59' W 093°13'2 4.6
2018-Jan-09 14:30N 29°58' W 093°11'2 4.4
2018-Jan-09 14:00N 29°56' W 093°09'2 4.4
2018-Jan-09 13:27N 29°56' W 093°07'2 4.2
2018-Jan-09 13:01N 29°56' W 093°04'39 4.0
2018-Jan-09 03:21N 29°51' W 092°20'1 3.7
2018-Jan-09 03:01N 29°50' W 092°19'2 3.6
2018-Jan-09 02:31N 29°49' W 092°17'2 4.5
2018-Jan-09 02:01N 29°48' W 092°15'2 4.5
2018-Jan-09 01:30N 29°47' W 092°12'2 4.0
2018-Jan-09 01:00N 29°47' W 092°10'2 4.1
2018-Jan-09 00:31N 29°47' W 092°08'2 3.7
2018-Jan-09 00:01N 29°48' W 092°06'1 2.7
2018-Jan-08 23:30N 29°48' W 092°04'2 4.3
2018-Jan-08 23:01N 29°49' W 092°02'2 4.6
2018-Jan-08 22:30N 29°50' W 091°60'57 3.7
2018-Jan-08 07:12N 29°34' W 090°57'1 4.7
2018-Jan-08 07:00N 29°34' W 090°56'3 5.0
2018-Jan-08 06:26N 29°32' W 090°53'2 4.6
2018-Jan-08 06:00N 29°32' W 090°51'3 5.3
2018-Jan-08 05:30N 29°32' W 090°48'2 4.5
2018-Jan-08 05:01N 29°33' W 090°45'2 4.4
2018-Jan-08 04:30N 29°34' W 090°43'2 3.8
2018-Jan-08 04:00N 29°36' W 090°43'1 2.5
2018-Jan-08 03:30N 29°36' W 090°41'2 4.3
2018-Jan-08 03:00N 29°36' W 090°39'2 4.2
2018-Jan-08 02:30N 29°35' W 090°37'2 3.7
2018-Jan-08 02:01N 29°34' W 090°35'2 4.2
2018-Jan-08 01:30N 29°34' W 090°32'2 4.6
2018-Jan-08 01:00N 29°34' W 090°30'3 4.7
2018-Jan-08 00:16N 29°33' W 090°26'  
Track history (hours):
 
Tides and Currents Weather Stations Pressure Air Temp Water Temp Dewpoint Dewpoint Depression Visibility Wind Speed Wind Dir Waves Ship Positions

D'andre Forward

Owner: Florida Marine, LLC, Mandeville, LA. More information available from US FCC via Universal Licensing System and Coast Guard Vessel Documentation Center.

Last reported at 2018-Jan-12 14:58 UTC. Time now 2018-Jan-21 16:19 UTC.
Position N 30°06' W 093°19'.
Warning: this ship's position is 9 days out of date.

Length 24 m; draft 2.6 m.

Type: Other ship. MMSI: 367644790.

Date/timePositionNaut miles runAvg speedWind from/ knotsBaromVisibWave heightAir tempDewpointWater temp
2018-Jan-12 14:58N 30°06' W 093°19'0 0.0
2018-Jan-12 14:30N 30°06' W 093°19'0 0.0
2018-Jan-12 14:00N 30°06' W 093°19'0 0.0
2018-Jan-12 13:30N 30°06' W 093°19'0 0.0
2018-Jan-12 13:00N 30°06' W 093°19'3 5.1
2018-Jan-12 12:30N 30°04' W 093°21'3 5.9
2018-Jan-12 12:00N 30°04' W 093°24'3 6.1
2018-Jan-12 11:30N 30°04' W 093°27'3 6.1
2018-Jan-12 11:00N 30°04' W 093°31'3 6.0
2018-Jan-12 10:29N 30°04' W 093°35'3 5.6
2018-Jan-12 10:01N 30°04' W 093°38'3 5.2
2018-Jan-12 09:30N 30°04' W 093°41'  
2018-Jan-09 23:58N 30°04' W 093°39'2 4.9
2018-Jan-09 23:30N 30°04' W 093°36'2 4.6
2018-Jan-09 22:59N 30°04' W 093°34'2 4.6
2018-Jan-09 22:30N 30°04' W 093°31'2 4.7
2018-Jan-09 22:00N 30°04' W 093°28'2 4.7
2018-Jan-09 21:30N 30°04' W 093°25'2 4.8
2018-Jan-09 21:00N 30°04' W 093°23'2 3.8
2018-Jan-09 20:31N 30°04' W 093°21'2 4.2
2018-Jan-09 20:01N 30°06' W 093°19'2 3.1
2018-Jan-09 19:30N 30°05' W 093°18'1 1.9
2018-Jan-09 19:00N 30°05' W 093°17'1 1.6
2018-Jan-09 18:31N 30°04' W 093°16'0 0.7
2018-Jan-09 18:00N 30°04' W 093°16'0 0.0
2018-Jan-09 17:31N 30°04' W 093°16'0 0.1
2018-Jan-09 17:01N 30°04' W 093°16'0 0.3
2018-Jan-09 16:30N 30°04' W 093°16'1 1.6
2018-Jan-09 16:01N 30°03' W 093°16'2 4.3
2018-Jan-09 15:30N 30°01' W 093°14'2 4.2
2018-Jan-09 15:00N 29°59' W 093°13'2 4.6
2018-Jan-09 14:30N 29°58' W 093°11'2 4.4
2018-Jan-09 14:00N 29°56' W 093°09'2 4.4
2018-Jan-09 13:27N 29°56' W 093°07'2 4.2
2018-Jan-09 13:01N 29°56' W 093°04'39 4.0
2018-Jan-09 03:21N 29°51' W 092°20'1 3.7
2018-Jan-09 03:01N 29°50' W 092°19'2 3.6
2018-Jan-09 02:31N 29°49' W 092°17'2 4.5
2018-Jan-09 02:01N 29°48' W 092°15'2 4.5
2018-Jan-09 01:30N 29°47' W 092°12'2 4.0
2018-Jan-09 01:00N 29°47' W 092°10'2 4.1
2018-Jan-09 00:31N 29°47' W 092°08'2 3.7
2018-Jan-09 00:01N 29°48' W 092°06'1 2.7
2018-Jan-08 23:30N 29°48' W 092°04'2 4.3
2018-Jan-08 23:01N 29°49' W 092°02'2 4.6
2018-Jan-08 22:30N 29°50' W 091°60'57 3.7
2018-Jan-08 07:12N 29°34' W 090°57'1 4.7
2018-Jan-08 07:00N 29°34' W 090°56'3 5.0
2018-Jan-08 06:26N 29°32' W 090°53'2 4.6
2018-Jan-08 06:00N 29°32' W 090°51'3 5.3
2018-Jan-08 05:30N 29°32' W 090°48'2 4.5
2018-Jan-08 05:01N 29°33' W 090°45'2 4.4
2018-Jan-08 04:30N 29°34' W 090°43'2 3.8
2018-Jan-08 04:00N 29°36' W 090°43'1 2.5
2018-Jan-08 03:30N 29°36' W 090°41'2 4.3
2018-Jan-08 03:00N 29°36' W 090°39'2 4.2
2018-Jan-08 02:30N 29°35' W 090°37'2 3.7
2018-Jan-08 02:01N 29°34' W 090°35'2 4.2
2018-Jan-08 01:30N 29°34' W 090°32'2 4.6
2018-Jan-08 01:00N 29°34' W 090°30'3 4.7
2018-Jan-08 00:16N 29°33' W 090°26'  

Dump ship's entire track history